Time;durP1;ratioP1;P1;durP2;ratioP2;P2;SDS_P1;SDS_P2;PMS_P1;PMS_P2;Temp;Humidity;BMP_temperature;BMP_pressure;BME280_temperature;BME280_humidity;BME280_pressure;Samples;Min_cycle;Max_cycle;Signal;HPM_P1;HPM_P2
2022/11/16 00:02:08;;;;;;;16.40;7.93;;;10.60;99.90;;;;;;5005582;28;20045;-70
2022/11/16 00:04:34;;;;;;;10.57;7.00;;;10.60;99.90;;;;;;5006929;28;20056;-70
2022/11/16 00:07:01;;;;;;;10.88;7.47;;;10.70;99.90;;;;;;5004620;28;20049;-70
2022/11/16 00:09:30;;;;;;;11.38;7.45;;;10.60;99.90;;;;;;5005558;28;20077;-70
2022/11/16 00:12:03;;;;;;;12.05;6.40;;;10.60;99.90;;;;;;5004996;28;20061;-70
2022/11/16 00:14:31;;;;;;;12.15;6.45;;;10.70;99.90;;;;;;4990002;28;20117;-71
2022/11/16 00:16:57;;;;;;;13.80;8.20;;;10.70;99.90;;;;;;5002022;28;20038;-70
2022/11/16 00:19:23;;;;;;;14.38;7.57;;;10.70;99.90;;;;;;4994674;28;20537;-70
2022/11/16 00:21:49;;;;;;;11.93;7.70;;;10.70;99.90;;;;;;4990420;28;20041;-70
2022/11/16 00:24:16;;;;;;;10.85;7.60;;;10.70;99.90;;;;;;5008176;28;20033;-70
2022/11/16 00:26:42;;;;;;;13.60;8.38;;;10.70;99.90;;;;;;5007925;28;20050;-70
2022/11/16 00:29:15;;;;;;;12.10;7.88;;;10.70;99.90;;;;;;5007943;28;20372;-70
2022/11/16 00:31:41;;;;;;;15.63;8.43;;;10.70;99.90;;;;;;5008038;28;20161;-69
2022/11/16 00:34:07;;;;;;;13.25;8.50;;;10.70;99.90;;;;;;4988931;28;20465;-69
2022/11/16 00:36:32;;;;;;;12.63;8.05;;;10.70;99.90;;;;;;4992071;28;20383;-70
2022/11/16 00:38:58;;;;;;;16.27;8.98;;;10.70;99.90;;;;;;5007277;28;20042;-70
2022/11/16 00:41:24;;;;;;;14.88;8.43;;;10.70;99.90;;;;;;5008506;28;20053;-70
2022/11/16 00:43:49;;;;;;;13.15;8.77;;;10.70;99.90;;;;;;5009492;28;20056;-70
2022/11/16 00:46:15;;;;;;;13.52;8.40;;;10.70;99.90;;;;;;5007485;28;20057;-69
2022/11/16 00:48:41;;;;;;;11.82;8.13;;;10.70;99.90;;;;;;5008518;28;20491;-70
2022/11/16 00:51:07;;;;;;;13.70;8.07;;;10.70;99.90;;;;;;5008150;28;20049;-70
2022/11/16 00:53:33;;;;;;;12.27;7.28;;;10.70;99.90;;;;;;5008290;28;20050;-70
2022/11/16 00:55:58;;;;;;;12.85;8.50;;;10.70;99.90;;;;;;5040765;28;20038;-70
2022/11/16 00:58:24;;;;;;;13.77;7.93;;;10.70;99.90;;;;;;5012962;28;20042;-70
2022/11/16 01:00:50;;;;;;;12.25;7.65;;;10.80;99.90;;;;;;5014473;28;20050;-70
2022/11/16 01:03:15;;;;;;;11.07;7.28;;;10.80;99.90;;;;;;5011625;28;20079;-70
2022/11/16 01:05:41;;;;;;;10.75;7.28;;;10.80;99.90;;;;;;5013887;28;20427;-70
2022/11/16 01:08:07;;;;;;;14.88;8.30;;;10.80;99.90;;;;;;4997884;28;20053;-69
2022/11/16 01:10:33;;;;;;;12.18;7.50;;;10.80;99.90;;;;;;5014650;28;20050;-70
2022/11/16 01:12:58;;;;;;;11.40;7.10;;;10.80;99.90;;;;;;5013812;28;20054;-70
2022/11/16 01:15:26;;;;;;;12.55;7.68;;;10.80;99.90;;;;;;5015031;28;20111;-70
2022/11/16 01:17:52;;;;;;;10.68;7.03;;;10.80;99.90;;;;;;5015140;28;20038;-70
2022/11/16 01:20:19;;;;;;;12.98;7.30;;;10.80;99.90;;;;;;4994754;28;20046;-70
2022/11/16 01:22:45;;;;;;;13.30;7.43;;;10.80;99.90;;;;;;5029137;28;20049;-69
2022/11/16 01:25:11;;;;;;;12.48;6.90;;;10.70;99.90;;;;;;5027758;28;20064;-70
2022/11/16 01:27:37;;;;;;;13.65;7.00;;;10.70;99.90;;;;;;4996131;28;20045;-70
2022/11/16 01:30:04;;;;;;;13.48;8.27;;;10.70;99.90;;;;;;5012876;28;20060;-70
2022/11/16 01:32:30;;;;;;;14.75;8.90;;;10.70;99.90;;;;;;4998577;28;20515;-70
2022/11/16 01:34:55;;;;;;;13.80;9.68;;;10.70;99.90;;;;;;5015831;28;20056;-70
2022/11/16 01:37:21;;;;;;;17.50;9.35;;;10.70;99.90;;;;;;5019714;28;20080;-69
2022/11/16 01:39:50;;;;;;;15.95;8.90;;;10.70;99.90;;;;;;5012983;28;20065;-70
2022/11/16 01:42:20;;;;;;;13.65;8.75;;;10.70;99.90;;;;;;4998344;28;20045;-70
2022/11/16 01:44:46;;;;;;;16.38;9.30;;;10.70;99.90;;;;;;5014484;28;20045;-69
2022/11/16 01:47:13;;;;;;;12.38;8.98;;;10.70;99.90;;;;;;5014230;28;20053;-70
2022/11/16 01:49:47;;;;;;;15.32;10.13;;;10.70;99.90;;;;;;4994003;28;20046;-70
2022/11/16 01:52:19;;;;;;;14.88;9.25;;;10.70;99.90;;;;;;5010939;28;20115;-71
2022/11/16 01:54:46;;;;;;;15.10;10.15;;;10.70;99.90;;;;;;5045935;28;20045;-70
2022/11/16 01:57:15;;;;;;;16.90;10.75;;;10.70;99.90;;;;;;5013335;28;20052;-70
2022/11/16 01:59:42;;;;;;;16.40;11.00;;;10.70;99.90;;;;;;5013168;28;20478;-70
2022/11/16 02:02:07;;;;;;;18.13;11.48;;;10.70;99.90;;;;;;4997938;28;20077;-71
2022/11/16 02:04:33;;;;;;;17.75;11.35;;;10.70;99.90;;;;;;4997776;28;20077;-70
2022/11/16 02:07:25;;;;;;;18.98;11.98;;;10.70;99.90;;;;;;4995393;28;20060;-71
2022/11/16 02:10:12;;;;;;;19.95;12.85;;;10.70;99.90;;;;;;5010908;28;20093;-70
2022/11/16 02:12:45;;;;;;;18.27;12.55;;;10.60;99.90;;;;;;5012008;28;20054;-70
2022/11/16 02:15:32;;;;;;;22.40;13.52;;;10.60;99.90;;;;;;5011475;28;20505;-70
2022/11/16 02:18:26;;;;;;;21.02;13.38;;;10.60;99.90;;;;;;5008395;28;20061;-70
2022/11/16 02:21:13;;;;;;;20.67;14.45;;;10.60;99.90;;;;;;5011314;28;20049;-70
2022/11/16 02:24:06;;;;;;;22.98;14.55;;;10.40;99.90;;;;;;5024394;28;20046;-70
2022/11/16 02:26:57;;;;;;;22.80;15.18;;;10.40;99.90;;;;;;5007576;28;20188;-70
2022/11/16 02:29:43;;;;;;;24.92;15.02;;;10.30;99.90;;;;;;4996661;28;20085;-71
2022/11/16 02:32:15;;;;;;;24.60;15.35;;;10.30;99.90;;;;;;5008391;28;20046;-70
2022/11/16 02:34:46;;;;;;;26.02;14.85;;;10.30;99.90;;;;;;5008330;28;20085;-70
2022/11/16 02:37:13;;;;;;;23.63;14.50;;;10.30;99.90;;;;;;5027372;28;20054;-70
2022/11/16 02:39:39;;;;;;;26.80;16.35;;;10.30;99.90;;;;;;4988886;28;20386;-70
2022/11/16 02:42:08;;;;;;;25.40;14.80;;;10.20;99.90;;;;;;4975122;28;20391;-70
2022/11/16 02:44:35;;;;;;;26.58;16.60;;;10.20;99.90;;;;;;5005383;28;20050;-70
2022/11/16 02:47:04;;;;;;;26.02;16.38;;;10.10;99.90;;;;;;4993179;28;20045;-70
2022/11/16 02:49:32;;;;;;;22.50;14.25;;;10.00;99.90;;;;;;5026551;28;20061;-70
2022/11/16 02:51:58;;;;;;;24.10;14.52;;;10.20;99.90;;;;;;5012775;28;20140;-70
2022/11/16 02:54:23;;;;;;;25.52;16.02;;;10.10;99.90;;;;;;5007618;28;20471;-70
2022/11/16 02:57:01;;;;;;;23.98;15.50;;;10.10;99.90;;;;;;5038310;28;20046;-70
2022/11/16 02:59:29;;;;;;;26.98;16.40;;;10.10;99.90;;;;;;5008912;28;20081;-70
2022/11/16 03:02:19;;;;;;;27.15;16.45;;;10.00;99.90;;;;;;5009158;28;20056;-70
2022/11/16 03:04:49;;;;;;;22.65;14.52;;;10.10;99.90;;;;;;5011050;28;20042;-70
2022/11/16 03:07:17;;;;;;;23.08;15.60;;;10.00;99.90;;;;;;5010117;28;20045;-70
2022/11/16 03:09:43;;;;;;;24.13;16.00;;;10.00;99.90;;;;;;5003843;28;20104;-71
2022/11/16 03:12:10;;;;;;;25.40;14.95;;;10.00;99.90;;;;;;4993157;28;20054;-71
2022/11/16 03:14:57;;;;;;;23.17;15.50;;;9.90;99.90;;;;;;4993419;28;20125;-71
2022/11/16 03:17:32;;;;;;;25.35;16.38;;;9.90;99.90;;;;;;5009765;28;20331;-71
2022/11/16 03:20:00;;;;;;;23.95;14.93;;;10.00;99.90;;;;;;4988974;28;20042;-71
2022/11/16 03:22:27;;;;;;;24.43;15.40;;;10.00;99.90;;;;;;4993287;28;20050;-70
2022/11/16 03:24:53;;;;;;;26.27;15.53;;;10.00;99.90;;;;;;4992422;28;20099;-71
2022/11/16 03:27:25;;;;;;;26.98;15.75;;;10.00;99.90;;;;;;5009990;28;20046;-70
2022/11/16 03:30:06;;;;;;;24.27;14.70;;;10.00;99.90;;;;;;5003983;28;20144;-71
2022/11/16 03:32:41;;;;;;;21.33;14.30;;;10.00;99.90;;;;;;4993281;28;20132;-71
2022/11/16 03:35:25;;;;;;;26.15;15.63;;;10.00;99.90;;;;;;5008554;28;20127;-71
2022/11/16 03:37:52;;;;;;;27.98;15.27;;;10.00;99.90;;;;;;4989561;28;20475;-71
2022/11/16 03:40:19;;;;;;;23.83;15.00;;;10.00;99.90;;;;;;5007097;28;20066;-71
2022/11/16 03:42:45;;;;;;;23.10;14.55;;;9.90;99.90;;;;;;5012581;28;20550;-71
2022/11/16 03:45:12;;;;;;;24.80;15.93;;;10.00;99.90;;;;;;4992570;28;20472;-71
2022/11/16 03:47:39;;;;;;;23.30;15.25;;;9.90;99.90;;;;;;5009730;28;20045;-71
2022/11/16 03:50:05;;;;;;;25.73;15.75;;;9.90;99.90;;;;;;5009327;28;20060;-71
2022/11/16 03:52:31;;;;;;;25.63;15.98;;;9.80;99.90;;;;;;5008700;28;20114;-71
2022/11/16 03:54:57;;;;;;;24.15;15.20;;;9.70;99.90;;;;;;5006437;28;20045;-71
2022/11/16 03:57:24;;;;;;;23.63;15.85;;;9.70;99.90;;;;;;5009506;28;20076;-71
2022/11/16 03:59:49;;;;;;;24.05;15.43;;;9.70;99.90;;;;;;5008712;28;20100;-72
2022/11/16 04:02:15;;;;;;;24.55;15.02;;;9.60;99.90;;;;;;5025746;28;20463;-71
2022/11/16 04:24:15;;;;;;;25.52;16.35;;;9.40;99.90;;;;;;5023144;28;20531;-72
2022/11/16 04:29:31;;;;;;;27.50;15.43;;;9.40;99.90;;;;;;5008759;28;20070;-71
2022/11/16 04:40:10;;;;;;;23.65;15.00;;;9.40;99.90;;;;;;5009390;28;20038;-70
2022/11/16 04:42:37;;;;;;;23.60;15.45;;;9.40;99.90;;;;;;5008412;28;20073;-70
2022/11/16 04:47:48;;;;;;;24.67;14.63;;;9.40;99.90;;;;;;5021976;28;20494;-71
2022/11/16 04:50:14;;;;;;;23.67;14.75;;;9.50;99.90;;;;;;4991463;28;20088;-70
2022/11/16 04:52:40;;;;;;;26.13;15.43;;;9.40;99.90;;;;;;5024833;28;20251;-70
2022/11/16 04:55:06;;;;;;;22.67;15.18;;;9.40;99.90;;;;;;5005389;28;20042;-70
2022/11/16 04:57:31;;;;;;;24.85;15.88;;;9.30;99.90;;;;;;4989290;28;20057;-71
2022/11/16 04:59:57;;;;;;;21.52;14.55;;;9.40;99.90;;;;;;4988629;28;20046;-70
2022/11/16 05:02:23;;;;;;;27.67;15.52;;;9.40;99.90;;;;;;5004316;28;20432;-71
2022/11/16 05:04:49;;;;;;;26.85;16.98;;;9.30;99.90;;;;;;5022463;28;20049;-70
2022/11/16 05:07:14;;;;;;;25.77;15.88;;;9.30;99.90;;;;;;5004395;28;20057;-70
2022/11/16 05:09:45;;;;;;;22.50;15.48;;;9.30;99.90;;;;;;5002784;28;20061;-71
2022/11/16 05:12:16;;;;;;;24.67;15.73;;;9.30;99.90;;;;;;5031740;28;20069;-71
2022/11/16 05:14:42;;;;;;;24.35;16.98;;;9.20;99.90;;;;;;5013905;28;20376;-71
2022/11/16 05:17:07;;;;;;;26.67;17.05;;;9.30;99.90;;;;;;4990125;28;20037;-71
2022/11/16 05:22:18;;;;;;;23.23;16.13;;;9.10;99.90;;;;;;5008116;28;20045;-71
2022/11/16 05:24:44;;;;;;;24.63;15.63;;;9.10;99.90;;;;;;4992026;28;20495;-71
2022/11/16 05:27:12;;;;;;;26.92;17.15;;;9.10;99.90;;;;;;4989842;28;20387;-71
2022/11/16 05:29:38;;;;;;;28.60;18.05;;;9.10;99.90;;;;;;5003621;28;20513;-71
2022/11/16 05:32:04;;;;;;;22.75;14.82;;;9.00;99.90;;;;;;5007161;28;20088;-71
2022/11/16 05:34:30;;;;;;;24.55;15.98;;;9.10;99.90;;;;;;5008231;28;20041;-71
2022/11/16 05:36:56;;;;;;;21.40;14.50;;;9.10;99.90;;;;;;5007961;28;20651;-71
2022/11/16 05:39:22;;;;;;;20.55;14.55;;;9.00;99.90;;;;;;5005054;28;20447;-70
2022/11/16 05:41:48;;;;;;;25.90;15.77;;;9.00;99.90;;;;;;5007951;28;20164;-73
2022/11/16 05:44:14;;;;;;;24.50;15.75;;;9.00;99.90;;;;;;5010399;28;20045;-71
2022/11/16 05:46:40;;;;;;;24.63;14.82;;;8.90;99.90;;;;;;5009402;28;20050;-72
2022/11/16 05:49:08;;;;;;;24.35;15.57;;;9.00;99.90;;;;;;5011966;28;20107;-71
2022/11/16 05:51:35;;;;;;;26.00;15.38;;;9.00;99.90;;;;;;4994705;28;20045;-71
2022/11/16 05:54:01;;;;;;;23.58;15.90;;;9.00;99.90;;;;;;4995265;28;20120;-71
2022/11/16 05:56:27;;;;;;;25.77;16.10;;;8.90;99.90;;;;;;5009813;28;20122;-71
2022/11/16 05:58:52;;;;;;;27.67;15.65;;;9.00;99.90;;;;;;5012200;28;20054;-71
2022/11/16 06:01:18;;;;;;;25.05;15.95;;;9.00;99.90;;;;;;4995316;28;20042;-71
2022/11/16 06:03:44;;;;;;;28.98;16.90;;;8.90;99.90;;;;;;4992631;28;20125;-71
2022/11/16 06:06:10;;;;;;;26.52;16.60;;;8.90;99.90;;;;;;5011244;28;20049;-71
2022/11/16 06:08:35;;;;;;;26.85;16.98;;;8.90;99.90;;;;;;4994790;28;20115;-71
2022/11/16 06:11:02;;;;;;;24.40;15.32;;;8.90;99.90;;;;;;5010812;28;20053;-71
2022/11/16 06:13:29;;;;;;;23.02;15.93;;;8.90;99.90;;;;;;4994357;28;20061;-71
2022/11/16 06:15:54;;;;;;;24.80;15.95;;;8.90;99.90;;;;;;5014344;28;20074;-71
2022/11/16 06:18:20;;;;;;;25.67;16.60;;;8.90;99.90;;;;;;5003871;28;20108;-71
2022/11/16 06:20:46;;;;;;;24.77;15.52;;;8.90;99.90;;;;;;5007429;28;20046;-71
2022/11/16 06:23:12;;;;;;;25.10;14.77;;;8.90;99.90;;;;;;4994461;28;20050;-71
2022/11/16 06:25:38;;;;;;;25.60;16.00;;;8.90;99.90;;;;;;5011280;28;20390;-71
2022/11/16 06:28:04;;;;;;;24.75;15.88;;;8.90;99.90;;;;;;4990655;28;20053;-71
2022/11/16 06:30:29;;;;;;;26.48;16.13;;;8.80;99.90;;;;;;4993923;28;20050;-71
2022/11/16 06:32:55;;;;;;;26.00;16.17;;;8.80;99.90;;;;;;5009823;28;20056;-71
2022/11/16 06:35:21;;;;;;;26.85;17.25;;;8.80;99.90;;;;;;5010795;28;20034;-71
2022/11/16 06:37:47;;;;;;;27.25;17.75;;;8.80;99.90;;;;;;5018225;28;20380;-71
2022/11/16 06:40:13;;;;;;;26.20;16.63;;;8.80;99.90;;;;;;5011102;28;20046;-70
2022/11/16 06:42:38;;;;;;;27.98;18.25;;;8.70;99.90;;;;;;5010217;28;20046;-70
2022/11/16 06:45:05;;;;;;;30.75;17.20;;;8.70;99.90;;;;;;5044504;28;20046;-70
2022/11/16 06:47:30;;;;;;;27.52;17.05;;;8.70;99.90;;;;;;5010415;28;20073;-70
2022/11/16 06:49:56;;;;;;;32.00;18.95;;;8.70;99.90;;;;;;4992575;28;20135;-71
2022/11/16 06:52:22;;;;;;;28.38;17.70;;;8.50;99.90;;;;;;4989888;28;20120;-70
2022/11/16 06:54:48;;;;;;;30.95;18.00;;;8.50;99.90;;;;;;5009432;28;20049;-70
2022/11/16 06:57:13;;;;;;;26.25;17.20;;;8.50;99.90;;;;;;4989679;28;20042;-71
2022/11/16 06:59:39;;;;;;;29.77;19.20;;;8.50;99.90;;;;;;5006363;28;20038;-71
2022/11/16 07:02:05;;;;;;;28.95;19.15;;;8.40;99.90;;;;;;5007750;28;20368;-70
2022/11/16 07:04:31;;;;;;;30.73;19.20;;;8.40;99.90;;;;;;5010020;28;20073;-71
2022/11/16 07:06:57;;;;;;;28.67;19.30;;;8.50;99.90;;;;;;5003544;28;20646;-71
2022/11/16 07:09:23;;;;;;;28.75;18.95;;;8.40;99.90;;;;;;5010509;28;20049;-70
2022/11/16 07:11:49;;;;;;;32.60;19.15;;;8.40;99.90;;;;;;5006446;28;20088;-72
2022/11/16 07:14:14;;;;;;;28.35;18.85;;;8.50;99.90;;;;;;5009448;28;20100;-71
2022/11/16 07:16:40;;;;;;;29.55;18.20;;;8.50;99.90;;;;;;5009668;28;20484;-71
2022/11/16 07:19:06;;;;;;;29.85;19.80;;;8.60;99.90;;;;;;5009053;28;20200;-71
2022/11/16 07:21:32;;;;;;;33.38;19.77;;;8.60;99.90;;;;;;4992233;28;20038;-71
2022/11/16 07:23:58;;;;;;;33.17;20.45;;;8.60;99.90;;;;;;5024516;28;20122;-71
2022/11/16 07:26:32;;;;;;;30.10;20.00;;;8.60;99.90;;;;;;5018495;28;20467;-71
2022/11/16 07:28:58;;;;;;;30.48;19.33;;;8.60;99.90;;;;;;5009065;28;20049;-71
2022/11/16 07:31:24;;;;;;;30.98;20.30;;;8.60;99.90;;;;;;5010006;28;20053;-71
2022/11/16 07:33:53;;;;;;;30.70;20.23;;;8.50;99.90;;;;;;5006240;28;20273;-72
2022/11/16 07:36:19;;;;;;;31.00;19.75;;;8.50;99.90;;;;;;5019981;28;20353;-71
2022/11/16 07:38:45;;;;;;;32.58;21.58;;;8.50;99.90;;;;;;5007037;28;20057;-71
2022/11/16 07:41:13;;;;;;;31.17;20.52;;;8.50;99.90;;;;;;4990657;28;20071;-71
2022/11/16 07:43:39;;;;;;;29.55;20.70;;;8.40;99.90;;;;;;5021148;28;20179;-71
2022/11/16 07:46:18;;;;;;;34.47;21.85;;;8.40;99.90;;;;;;5007564;28;20469;-70
2022/11/16 07:48:49;;;;;;;31.05;20.25;;;8.30;99.90;;;;;;5001837;28;20082;-71
2022/11/16 07:51:15;;;;;;;27.55;18.83;;;8.30;99.90;;;;;;5007678;28;20046;-70
2022/11/16 07:53:42;;;;;;;36.80;23.15;;;8.40;99.90;;;;;;5007510;28;20042;-71
2022/11/16 07:56:10;;;;;;;31.45;20.45;;;8.40;99.90;;;;;;4986780;28;20046;-71
2022/11/16 07:58:36;;;;;;;33.40;21.17;;;8.50;99.90;;;;;;5008506;28;20129;-71
2022/11/16 08:01:06;;;;;;;31.60;20.70;;;8.50;99.90;;;;;;5005182;28;20563;-71
2022/11/16 08:03:33;;;;;;;32.22;20.85;;;8.50;99.90;;;;;;5023537;28;20125;-71
2022/11/16 08:06:00;;;;;;;32.53;22.30;;;8.40;99.90;;;;;;5006474;28;20077;-71
2022/11/16 08:08:25;;;;;;;29.92;20.13;;;8.40;99.90;;;;;;5023255;28;20509;-72
2022/11/16 08:10:51;;;;;;;34.45;21.52;;;8.50;99.90;;;;;;5006031;28;20129;-71
2022/11/16 08:13:17;;;;;;;32.25;21.27;;;8.40;99.90;;;;;;5006420;28;20448;-71
2022/11/16 08:15:43;;;;;;;32.63;21.13;;;8.40;99.90;;;;;;5005424;28;20537;-71
2022/11/16 08:18:08;;;;;;;31.33;20.52;;;8.50;99.90;;;;;;5008109;28;20050;-70
2022/11/16 08:20:35;;;;;;;31.15;21.17;;;8.40;99.90;;;;;;5008691;28;20099;-71
2022/11/16 08:23:01;;;;;;;32.17;20.90;;;8.50;99.90;;;;;;5009485;28;20494;-72
2022/11/16 08:25:26;;;;;;;32.42;21.30;;;8.50;99.90;;;;;;4988208;28;20049;-71
2022/11/16 08:27:52;;;;;;;34.30;22.33;;;8.50;99.90;;;;;;5007904;28;20422;-71
2022/11/16 08:30:18;;;;;;;32.80;20.67;;;8.50;99.90;;;;;;5005549;28;20115;-65
2022/11/16 08:32:44;;;;;;;31.77;21.27;;;8.50;99.90;;;;;;5020897;28;20462;-65
2022/11/16 08:35:10;;;;;;;32.45;21.90;;;8.50;99.90;;;;;;4991956;28;20042;-64
2022/11/16 08:37:36;;;;;;;33.88;22.42;;;8.50;99.90;;;;;;5006630;28;20117;-65
2022/11/16 08:40:02;;;;;;;31.45;20.63;;;8.50;99.90;;;;;;4991556;28;20045;-65
2022/11/16 08:42:28;;;;;;;31.60;20.92;;;8.60;99.90;;;;;;5002079;28;20054;-64
2022/11/16 08:44:53;;;;;;;31.55;20.92;;;8.60;99.90;;;;;;5007304;28;20050;-65
2022/11/16 08:47:19;;;;;;;32.10;19.95;;;8.60;99.90;;;;;;5009361;28;20046;-67
2022/11/16 08:49:45;;;;;;;30.38;20.25;;;8.60;99.90;;;;;;5008194;28;20065;-65
2022/11/16 08:52:11;;;;;;;29.83;19.67;;;8.60;99.90;;;;;;4990152;28;20387;-67
2022/11/16 08:54:37;;;;;;;28.42;18.65;;;8.60;99.90;;;;;;5023452;28;20046;-65
2022/11/16 08:57:03;;;;;;;30.25;20.05;;;8.70;99.90;;;;;;5008064;28;20041;-66
2022/11/16 08:59:28;;;;;;;30.05;19.13;;;8.70;99.90;;;;;;5007837;28;20516;-67
2022/11/16 09:01:54;;;;;;;27.17;16.65;;;8.60;99.90;;;;;;5006721;28;20463;-66
2022/11/16 09:04:20;;;;;;;31.05;18.67;;;8.60;99.90;;;;;;4988013;28;20041;-65
2022/11/16 09:06:46;;;;;;;30.65;18.88;;;8.60;99.90;;;;;;5001985;28;20138;-66
2022/11/16 09:09:12;;;;;;;31.70;19.88;;;8.60;99.90;;;;;;5020975;28;20129;-65
2022/11/16 09:11:37;;;;;;;31.05;19.25;;;8.60;99.90;;;;;;5002709;28;20049;-64
2022/11/16 09:14:03;;;;;;;30.23;18.98;;;8.60;99.90;;;;;;4990869;28;20105;-65
2022/11/16 09:16:29;;;;;;;30.60;19.42;;;8.70;99.90;;;;;;5004615;28;20053;-65
2022/11/16 09:18:55;;;;;;;29.20;19.27;;;8.70;99.90;;;;;;4993768;28;20410;-65
2022/11/16 09:21:28;;;;;;;30.58;20.02;;;8.70;99.90;;;;;;5011621;28;20068;-64
2022/11/16 09:23:54;;;;;;;28.92;18.90;;;8.70;99.90;;;;;;4993865;28;20053;-66
2022/11/16 09:26:21;;;;;;;29.00;18.73;;;8.70;99.90;;;;;;5011568;28;20053;-66
2022/11/16 09:28:54;;;;;;;32.08;18.70;;;8.70;99.90;;;;;;5010791;28;20056;-66
2022/11/16 09:31:20;;;;;;;25.58;17.77;;;8.70;99.90;;;;;;4995731;28;20404;-65
2022/11/16 09:33:47;;;;;;;32.83;19.58;;;8.80;99.90;;;;;;5011220;28;20056;-65
2022/11/16 09:36:14;;;;;;;30.50;19.48;;;8.70;99.90;;;;;;5011809;28;20139;-65
2022/11/16 09:38:42;;;;;;;28.97;18.23;;;8.80;99.90;;;;;;5012914;28;20058;-65
2022/11/16 09:41:22;;;;;;;23.57;16.53;;;8.80;99.90;;;;;;5011438;28;20041;-65
2022/11/16 09:44:00;;;;;;;30.98;19.38;;;8.80;99.90;;;;;;5011226;28;20288;-67
2022/11/16 09:46:51;;;;;;;27.20;17.80;;;8.80;99.90;;;;;;4991443;28;20054;-66
2022/11/16 09:49:19;;;;;;;30.63;18.50;;;8.80;99.90;;;;;;5007138;28;20067;-65
2022/11/16 09:51:50;;;;;;;28.75;17.88;;;8.80;99.90;;;;;;4991765;28;20042;-65
2022/11/16 09:54:23;;;;;;;31.65;20.15;;;8.80;99.90;;;;;;4994630;28;20585;-65
2022/11/16 09:56:51;;;;;;;29.10;18.50;;;8.80;99.90;;;;;;5008039;28;20093;-66
2022/11/16 09:59:21;;;;;;;30.50;18.63;;;8.80;99.90;;;;;;5010289;28;20405;-68
2022/11/16 10:02:15;;;;;;;27.92;17.25;;;8.80;99.90;;;;;;5011169;28;20046;-66
2022/11/16 10:05:07;;;;;;;28.15;17.70;;;8.90;99.90;;;;;;5009817;28;20045;-65
2022/11/16 10:07:41;;;;;;;29.55;16.75;;;8.90;99.90;;;;;;5011090;28;20161;-66
2022/11/16 10:10:20;;;;;;;28.98;16.85;;;8.80;99.90;;;;;;4994748;28;20056;-65
2022/11/16 10:13:24;;;;;;;26.65;16.63;;;8.80;99.90;;;;;;5010221;28;20379;-68
2022/11/16 10:16:26;;;;;;;28.50;16.48;;;8.70;99.90;;;;;;5013776;28;20340;-66
2022/11/16 10:18:59;;;;;;;25.70;15.57;;;8.80;99.90;;;;;;5010582;28;20498;-67
2022/11/16 10:22:00;;;;;;;25.83;15.95;;;8.80;99.90;;;;;;5007062;28;20486;-66
2022/11/16 10:24:38;;;;;;;24.33;15.18;;;8.70;99.90;;;;;;5010577;28;20046;-66
2022/11/16 10:27:15;;;;;;;24.98;15.43;;;8.70;99.90;;;;;;4993336;28;20049;-65
2022/11/16 10:29:56;;;;;;;26.38;16.23;;;8.80;99.90;;;;;;5009288;28;20054;-66
2022/11/16 10:32:29;;;;;;;22.67;13.90;;;8.70;99.90;;;;;;5010421;28;20056;-66
2022/11/16 10:35:10;;;;;;;23.77;14.13;;;8.70;99.90;;;;;;4993987;28;20042;-66
2022/11/16 10:37:42;;;;;;;23.40;13.95;;;8.80;99.90;;;;;;5008699;28;20369;-65
2022/11/16 10:40:29;;;;;;;25.40;14.93;;;8.80;99.90;;;;;;5008202;28;20034;-65
2022/11/16 10:43:12;;;;;;;24.58;15.30;;;8.60;99.90;;;;;;4993235;28;20049;-64
2022/11/16 10:45:41;;;;;;;23.45;14.90;;;8.70;99.90;;;;;;4992360;28;20408;-65
2022/11/16 10:48:31;;;;;;;25.45;15.55;;;8.70;99.90;;;;;;5042174;28;20077;-65
2022/11/16 10:50:58;;;;;;;27.88;16.98;;;8.80;99.90;;;;;;5010618;28;20376;-65
2022/11/16 10:53:36;;;;;;;27.83;16.27;;;8.80;99.90;;;;;;5007681;28;20068;-65
2022/11/16 10:56:16;;;;;;;23.77;14.30;;;8.80;99.90;;;;;;5022241;28;20042;-66
2022/11/16 10:58:51;;;;;;;25.75;16.83;;;8.80;99.90;;;;;;5033393;28;20089;-65
2022/11/16 11:01:36;;;;;;;26.50;15.80;;;8.80;99.90;;;;;;5009024;28;20046;-65
2022/11/16 11:04:21;;;;;;;25.17;15.43;;;8.80;99.90;;;;;;5007723;28;20050;-65
2022/11/16 11:06:55;;;;;;;25.60;15.40;;;8.80;99.90;;;;;;5010238;28;20092;-64
2022/11/16 11:09:27;;;;;;;25.55;16.45;;;8.80;99.90;;;;;;5009255;28;20134;-64
2022/11/16 11:15:25;;;;;;;30.60;17.98;;;8.80;99.90;;;;;;5009958;28;20061;-66
2022/11/16 11:18:24;;;;;;;27.50;16.95;;;8.80;99.90;;;;;;5008013;28;20046;-65
2022/11/16 11:21:19;;;;;;;27.90;17.00;;;8.80;99.90;;;;;;5024261;28;20049;-65
2022/11/16 11:23:52;;;;;;;27.88;15.77;;;8.80;99.90;;;;;;5038759;28;20042;-66
2022/11/16 11:26:39;;;;;;;24.05;16.00;;;8.80;99.90;;;;;;5009285;28;20046;-65
2022/11/16 11:29:26;;;;;;;24.30;15.75;;;8.80;99.90;;;;;;5007532;28;20419;-66
2022/11/16 11:32:13;;;;;;;23.38;16.08;;;8.80;99.90;;;;;;5009455;28;20050;-65
2022/11/16 11:34:49;;;;;;;25.00;15.77;;;8.80;99.90;;;;;;5009117;28;20521;-65
2022/11/16 11:37:19;;;;;;;26.67;16.05;;;8.80;99.90;;;;;;5020680;28;20164;-64
2022/11/16 11:39:44;;;;;;;25.80;15.75;;;8.80;99.90;;;;;;5008958;28;20057;-64
2022/11/16 11:42:13;;;;;;;27.80;16.40;;;8.80;99.90;;;;;;5007822;28;20049;-63
2022/11/16 11:44:50;;;;;;;26.95;17.35;;;8.80;99.90;;;;;;5008730;28;20579;-64
2022/11/16 11:47:19;;;;;;;26.67;16.63;;;8.80;99.90;;;;;;5022666;28;20056;-65
2022/11/16 11:49:48;;;;;;;26.55;15.85;;;8.70;99.90;;;;;;5008717;28;20053;-64
2022/11/16 11:52:21;;;;;;;24.10;15.30;;;8.70;99.90;;;;;;4996775;28;20041;-64
2022/11/16 11:54:48;;;;;;;24.60;15.98;;;8.70;99.90;;;;;;5026197;28;20128;-65
2022/11/16 11:57:19;;;;;;;25.35;16.30;;;8.60;99.90;;;;;;5007982;28;20642;-64
2022/11/16 11:59:47;;;;;;;25.23;15.82;;;8.70;99.90;;;;;;4990739;28;20057;-65
2022/11/16 12:02:30;;;;;;;24.92;15.27;;;8.70;99.90;;;;;;4976135;28;20101;-64
2022/11/16 12:05:18;;;;;;;27.02;16.83;;;8.70;99.90;;;;;;5003563;28;20052;-65
2022/11/16 12:08:11;;;;;;;27.33;17.23;;;8.60;99.90;;;;;;5008692;28;20038;-64
2022/11/16 12:10:50;;;;;;;27.42;18.25;;;8.60;99.90;;;;;;5008763;28;20061;-66
2022/11/16 12:13:47;;;;;;;27.77;17.00;;;8.60;99.90;;;;;;5002581;28;20041;-64
2022/11/16 12:16:25;;;;;;;29.52;18.73;;;8.70;99.90;;;;;;5008796;28;20164;-66
2022/11/16 12:19:16;;;;;;;32.55;20.38;;;8.60;99.90;;;;;;5006693;28;20140;-65
2022/11/16 12:22:01;;;;;;;30.75;19.65;;;8.60;99.90;;;;;;5008881;28;20050;-65
2022/11/16 12:25:06;;;;;;;31.35;19.42;;;8.50;99.90;;;;;;5013868;28;20086;-65
2022/11/16 12:28:07;;;;;;;29.48;19.33;;;8.60;99.90;;;;;;5008838;28;20133;-64
2022/11/16 12:30:34;;;;;;;28.52;18.75;;;8.60;99.90;;;;;;5007243;28;20613;-66
2022/11/16 12:33:30;;;;;;;29.98;20.17;;;8.60;99.90;;;;;;5002867;28;20099;-65
2022/11/16 12:35:59;;;;;;;32.92;18.83;;;8.50;99.90;;;;;;5009973;28;20044;-65
2022/11/16 12:38:43;;;;;;;;;;;8.50;99.90;;;;;;5010430;28;20046;-64
2022/11/16 12:41:46;;;;;;;33.33;20.65;;;8.40;99.90;;;;;;5003161;28;19916;-65
2022/11/16 12:44:13;;;;;;;31.70;19.63;;;8.40;99.90;;;;;;5007154;28;20524;-65
2022/11/16 12:46:57;;;;;;;33.27;19.97;;;8.40;99.90;;;;;;5005191;28;20053;-64
2022/11/16 12:50:00;;;;;;;31.88;20.13;;;8.50;99.90;;;;;;4992707;28;20276;-66
2022/11/16 12:53:07;;;;;;;31.23;19.80;;;8.50;99.90;;;;;;4992659;28;20046;-64
2022/11/16 12:56:21;;;;;;;30.52;18.33;;;8.50;99.90;;;;;;5024678;28;20044;-65
2022/11/16 12:59:01;;;;;;;29.10;18.73;;;8.50;99.90;;;;;;4978340;28;20045;-65
2022/11/16 13:01:40;;;;;;;29.60;18.73;;;8.50;99.90;;;;;;4992397;28;20141;-65
2022/11/16 13:04:17;;;;;;;33.65;21.20;;;8.50;99.90;;;;;;5007115;28;20085;-65
2022/11/16 13:06:47;;;;;;;29.53;18.27;;;8.40;99.90;;;;;;5002134;28;20045;-65
2022/11/16 13:09:22;;;;;;;28.88;17.50;;;8.50;99.90;;;;;;5006165;28;20285;-66
2022/11/16 13:12:03;;;;;;;26.95;17.13;;;8.50;99.90;;;;;;5009034;28;20803;-65
2022/11/16 13:14:38;;;;;;;27.20;17.42;;;8.50;99.90;;;;;;4992624;28;20788;-65
2022/11/16 13:17:05;;;;;;;27.05;18.00;;;8.50;99.90;;;;;;5008260;28;20050;-65
2022/11/16 13:19:32;;;;;;;23.77;16.33;;;8.50;99.90;;;;;;5024511;28;20456;-66
2022/11/16 13:22:20;;;;;;;25.37;16.40;;;8.40;99.90;;;;;;5009284;28;20092;-66
2022/11/16 13:24:53;;;;;;;26.73;15.75;;;8.40;99.90;;;;;;5018913;28;20104;-65
2022/11/16 13:27:42;;;;;;;28.05;17.27;;;8.40;99.90;;;;;;4991053;28;20178;-65
2022/11/16 13:30:18;;;;;;;24.08;16.73;;;8.40;99.90;;;;;;5007785;28;20495;-66
2022/11/16 13:33:23;;;;;;;25.30;16.50;;;8.40;99.90;;;;;;5024605;28;20061;-65
2022/11/16 13:35:50;;;;;;;23.52;15.68;;;8.40;99.90;;;;;;5009851;28;20550;-66
2022/11/16 13:38:38;;;;;;;24.33;15.18;;;8.40;99.90;;;;;;5023383;28;20692;-65